createdAt,value
2022-11-16T00:01:42.537Z,19.90
2022-11-16T00:04:12.844Z,19.10
2022-11-16T00:06:41.179Z,19.47
2022-11-16T00:09:23.406Z,20.17
2022-11-16T00:11:52.838Z,20.43
2022-11-16T00:14:21.199Z,19.20
2022-11-16T00:16:51.467Z,18.80
2022-11-16T00:19:19.717Z,19.60
2022-11-16T00:21:47.959Z,17.67
2022-11-16T00:24:17.240Z,17.23
2022-11-16T00:26:45.518Z,17.37
2022-11-16T00:29:16.046Z,17.50
2022-11-16T00:31:45.952Z,18.40
2022-11-16T00:34:15.398Z,18.40
2022-11-16T00:36:43.635Z,17.80
2022-11-16T00:39:12.724Z,19.03
2022-11-16T00:41:40.627Z,18.10
2022-11-16T00:44:08.739Z,19.03
2022-11-16T00:46:36.710Z,19.77
2022-11-16T00:49:05.454Z,18.40
2022-11-16T00:51:36.001Z,18.40
2022-11-16T00:54:05.771Z,21.47
2022-11-16T00:56:36.202Z,18.03
2022-11-16T00:59:05.420Z,19.50
2022-11-16T01:01:34.228Z,18.53
2022-11-16T01:04:02.552Z,18.00
2022-11-16T01:06:30.376Z,18.30
2022-11-16T01:08:59.551Z,20.17
2022-11-16T01:11:44.759Z,19.00
2022-11-16T01:14:12.875Z,20.23
2022-11-16T01:16:43.259Z,19.77
2022-11-16T01:19:11.477Z,19.53
2022-11-16T01:21:39.307Z,19.40
2022-11-16T01:24:08.938Z,20.90
2022-11-16T01:26:36.828Z,20.50
2022-11-16T01:29:05.112Z,18.43
2022-11-16T01:31:37.239Z,21.17
2022-11-16T01:34:05.861Z,21.10
2022-11-16T01:36:35.443Z,20.83
2022-11-16T01:39:03.952Z,21.50
2022-11-16T01:41:44.238Z,21.50
2022-11-16T01:44:59.863Z,21.67
2022-11-16T01:47:28.335Z,16.30
2022-11-16T01:50:03.365Z,22.03
2022-11-16T01:52:37.499Z,22.33
2022-11-16T01:55:06.063Z,21.33
2022-11-16T01:57:50.908Z,22.60
2022-11-16T02:00:19.922Z,21.83
2022-11-16T02:03:04.752Z,19.70
2022-11-16T02:05:51.352Z,20.83
2022-11-16T02:08:49.282Z,20.83
2022-11-16T02:11:30.835Z,20.93
2022-11-16T02:14:12.584Z,21.50
2022-11-16T02:16:51.718Z,20.47
2022-11-16T02:19:58.646Z,19.80
2022-11-16T02:22:39.727Z,19.53
2022-11-16T02:25:13.710Z,20.97
2022-11-16T02:28:04.751Z,21.37
2022-11-16T02:30:34.886Z,19.67
2022-11-16T02:33:05.735Z,19.63
2022-11-16T02:35:41.434Z,19.50
2022-11-16T02:38:14.347Z,20.60
2022-11-16T02:40:46.208Z,20.80
2022-11-16T02:43:23.026Z,20.47
2022-11-16T02:45:56.776Z,20.47
2022-11-16T02:48:32.394Z,19.33
2022-11-16T02:51:04.152Z,19.70
2022-11-16T02:53:37.944Z,20.10
2022-11-16T02:56:06.635Z,20.10
2022-11-16T02:58:34.925Z,22.20
2022-11-16T03:01:09.688Z,20.43
2022-11-16T03:03:46.511Z,21.40
2022-11-16T03:06:21.128Z,21.07
2022-11-16T03:08:54.915Z,20.47
2022-11-16T03:11:40.294Z,21.17
2022-11-16T03:14:14.937Z,21.93
2022-11-16T03:16:48.535Z,21.30
2022-11-16T03:19:20.855Z,22.87
2022-11-16T03:21:52.861Z,20.80
2022-11-16T03:24:21.638Z,19.60
2022-11-16T03:26:55.294Z,20.47
2022-11-16T03:29:31.443Z,22.47
2022-11-16T03:32:10.640Z,19.80
2022-11-16T03:34:41.770Z,21.47
2022-11-16T03:37:11.344Z,21.60
2022-11-16T03:39:40.545Z,19.77
2022-11-16T03:42:14.023Z,21.63
2022-11-16T03:44:46.118Z,22.80
2022-11-16T03:47:15.483Z,24.23
2022-11-16T03:49:45.855Z,22.20
2022-11-16T03:52:16.871Z,20.57
2022-11-16T03:54:45.046Z,21.47
2022-11-16T03:57:17.375Z,20.03
2022-11-16T03:59:47.220Z,20.30
2022-11-16T04:02:16.475Z,20.47
2022-11-16T04:05:01.771Z,20.33
2022-11-16T04:07:47.173Z,20.97
2022-11-16T04:10:33.409Z,19.30
2022-11-16T04:13:20.439Z,19.60
2022-11-16T04:16:05.654Z,21.40
2022-11-16T04:18:52.799Z,20.00
2022-11-16T04:21:43.694Z,20.23
2022-11-16T04:24:16.347Z,19.60
2022-11-16T04:27:03.548Z,18.73
2022-11-16T04:29:31.858Z,18.40
2022-11-16T04:32:17.157Z,19.20
2022-11-16T04:35:04.014Z,17.47
2022-11-16T04:37:50.046Z,20.37
2022-11-16T04:40:25.071Z,20.87
2022-11-16T04:42:54.848Z,21.70
2022-11-16T04:45:41.575Z,18.70
2022-11-16T04:48:11.047Z,22.77
2022-11-16T04:50:41.834Z,21.07
2022-11-16T04:53:09.902Z,22.00
2022-11-16T04:55:45.508Z,21.33
2022-11-16T04:58:15.070Z,21.03
2022-11-16T05:00:43.325Z,20.50
2022-11-16T05:03:11.839Z,21.47
2022-11-16T05:05:41.451Z,20.87
2022-11-16T05:08:09.431Z,19.90
2022-11-16T05:10:38.215Z,20.63
2022-11-16T05:13:06.131Z,20.13
2022-11-16T05:15:34.894Z,19.83
2022-11-16T05:18:03.535Z,19.97
2022-11-16T05:20:49.246Z,19.57
2022-11-16T05:23:35.891Z,18.97
2022-11-16T05:26:10.042Z,19.43
2022-11-16T05:28:39.098Z,19.23
2022-11-16T05:31:08.317Z,20.20
2022-11-16T05:33:36.767Z,18.43
2022-11-16T05:36:05.287Z,19.77
2022-11-16T05:38:34.764Z,20.77
2022-11-16T05:41:02.696Z,19.83
2022-11-16T05:43:31.342Z,20.93
2022-11-16T05:46:14.352Z,21.70
2022-11-16T05:48:42.184Z,21.53
2022-11-16T05:51:10.060Z,20.37
2022-11-16T05:53:39.196Z,20.77
2022-11-16T05:56:08.287Z,21.20
2022-11-16T05:58:39.572Z,20.83
2022-11-16T06:01:07.388Z,20.50
2022-11-16T06:03:36.429Z,21.37
2022-11-16T06:06:05.784Z,22.40
2022-11-16T06:08:33.991Z,21.30
2022-11-16T06:11:09.564Z,21.63
2022-11-16T06:13:38.495Z,20.33
2022-11-16T06:16:07.971Z,22.17
2022-11-16T06:18:39.303Z,22.60
2022-11-16T06:21:08.101Z,16.67
2022-11-16T06:23:35.980Z,22.27
2022-11-16T06:26:04.592Z,23.00
2022-11-16T06:28:35.650Z,21.63
2022-11-16T06:31:04.908Z,20.73
2022-11-16T06:33:37.350Z,20.73
2022-11-16T06:36:10.094Z,18.23
2022-11-16T06:38:38.462Z,21.77
2022-11-16T06:41:06.846Z,22.37
2022-11-16T06:43:41.904Z,21.67
2022-11-16T06:46:09.931Z,23.40
2022-11-16T06:48:40.085Z,23.50
2022-11-16T06:51:12.370Z,22.50
2022-11-16T06:53:40.279Z,21.37
2022-11-16T06:56:11.251Z,23.53
2022-11-16T06:58:45.357Z,22.60
2022-11-16T07:01:15.319Z,21.97
2022-11-16T07:03:45.483Z,24.33
2022-11-16T07:06:15.203Z,26.20
2022-11-16T07:08:46.037Z,25.30
2022-11-16T07:11:17.136Z,23.67
2022-11-16T07:13:46.304Z,24.33
2022-11-16T07:16:14.620Z,23.70
2022-11-16T07:18:49.775Z,24.87
2022-11-16T07:21:17.874Z,26.40
2022-11-16T07:23:46.574Z,28.17
2022-11-16T07:26:19.610Z,27.53
2022-11-16T07:28:54.654Z,25.40
2022-11-16T07:31:23.918Z,24.77
2022-11-16T07:34:11.680Z,24.37
2022-11-16T07:36:45.918Z,24.23
2022-11-16T07:39:13.964Z,24.90
2022-11-16T07:41:44.236Z,24.40
2022-11-16T07:44:33.675Z,24.63
2022-11-16T07:47:11.509Z,26.10
2022-11-16T07:49:39.544Z,26.70
2022-11-16T07:52:14.455Z,37.07
2022-11-16T07:54:53.859Z,28.30
2022-11-16T07:57:25.039Z,25.77
2022-11-16T07:59:56.266Z,23.60
2022-11-16T08:02:24.397Z,22.60
2022-11-16T08:04:53.342Z,22.50
2022-11-16T08:07:26.079Z,24.07
2022-11-16T08:09:57.079Z,22.30
2022-11-16T08:12:25.073Z,22.10
2022-11-16T08:14:54.022Z,23.57
2022-11-16T08:17:23.252Z,22.90
2022-11-16T08:19:51.398Z,23.23
2022-11-16T08:22:19.513Z,21.87
2022-11-16T08:24:47.737Z,20.07
2022-11-16T08:27:17.397Z,21.83
2022-11-16T08:29:48.248Z,19.87
2022-11-16T08:32:16.820Z,20.13
2022-11-16T08:34:46.677Z,19.83
2022-11-16T08:37:14.637Z,21.27
2022-11-16T08:39:46.288Z,21.03
2022-11-16T08:42:14.182Z,22.40
2022-11-16T08:44:46.574Z,21.57
2022-11-16T08:47:16.377Z,22.10
2022-11-16T08:50:05.006Z,23.80
2022-11-16T08:52:33.584Z,23.40
2022-11-16T08:55:02.706Z,22.17
2022-11-16T08:57:31.243Z,21.47
2022-11-16T09:00:01.713Z,23.23
2022-11-16T09:02:29.551Z,21.40
2022-11-16T09:04:57.376Z,22.20
2022-11-16T09:07:26.608Z,21.00
2022-11-16T09:09:54.466Z,19.87
2022-11-16T09:12:22.271Z,22.00
2022-11-16T09:14:50.080Z,19.03
2022-11-16T09:17:22.959Z,19.73
2022-11-16T09:19:51.220Z,19.77
2022-11-16T09:22:19.059Z,20.10
2022-11-16T09:24:48.605Z,18.17
2022-11-16T09:27:16.874Z,18.10
2022-11-16T09:29:44.778Z,18.27
2022-11-16T09:32:12.631Z,17.70
2022-11-16T09:34:40.420Z,17.63
2022-11-16T09:37:11.502Z,17.03
2022-11-16T09:39:39.294Z,18.20
2022-11-16T09:42:22.718Z,17.83
2022-11-16T09:45:08.532Z,18.30
2022-11-16T09:47:45.633Z,16.83
2022-11-16T09:50:26.535Z,16.90
2022-11-16T09:52:57.338Z,16.87
2022-11-16T09:55:28.899Z,17.20
2022-11-16T09:58:00.951Z,18.20
2022-11-16T10:00:31.707Z,16.10
2022-11-16T10:03:05.095Z,17.57
2022-11-16T10:05:38.410Z,15.40
2022-11-16T10:08:14.293Z,18.23
2022-11-16T10:10:52.467Z,17.43
2022-11-16T10:13:32.404Z,19.87
2022-11-16T10:16:13.326Z,17.20
2022-11-16T10:18:53.606Z,17.70
2022-11-16T10:21:46.422Z,18.17
2022-11-16T10:24:27.023Z,18.13
2022-11-16T10:27:05.755Z,17.00
2022-11-16T10:29:47.670Z,17.80
2022-11-16T10:32:25.946Z,18.43
2022-11-16T10:34:56.262Z,17.47
2022-11-16T10:37:30.275Z,17.50
2022-11-16T10:39:58.370Z,16.37
2022-11-16T10:42:35.839Z,18.27
2022-11-16T10:45:14.255Z,17.00
2022-11-16T10:47:50.059Z,17.43
2022-11-16T10:50:31.814Z,19.37
2022-11-16T10:53:00.127Z,18.20
2022-11-16T10:55:29.301Z,18.23
2022-11-16T10:57:59.659Z,16.90
2022-11-16T11:00:37.506Z,18.30
2022-11-16T11:03:05.659Z,18.77
2022-11-16T11:05:35.531Z,17.33
2022-11-16T11:08:06.299Z,18.77
2022-11-16T11:10:36.847Z,19.87
2022-11-16T11:13:27.292Z,17.77
2022-11-16T11:16:15.970Z,18.90
2022-11-16T11:18:43.890Z,16.73
2022-11-16T11:21:18.605Z,16.50
2022-11-16T11:23:48.683Z,17.10
2022-11-16T11:26:37.335Z,17.37
2022-11-16T11:29:17.692Z,17.50
2022-11-16T11:31:50.634Z,15.80
2022-11-16T11:34:21.568Z,16.40
2022-11-16T11:36:53.252Z,16.77
2022-11-16T11:39:30.983Z,16.03
2022-11-16T11:42:05.372Z,17.63
2022-11-16T11:44:39.498Z,16.60
2022-11-16T11:50:18.595Z,15.50
2022-11-16T11:52:58.924Z,16.73
2022-11-16T11:55:27.271Z,17.47
2022-11-16T11:57:57.253Z,16.87
2022-11-16T12:00:26.111Z,17.07
2022-11-16T12:03:41.519Z,16.27
2022-11-16T12:06:19.630Z,16.70
2022-11-16T12:09:19.948Z,15.70
2022-11-16T12:11:59.230Z,14.70
2022-11-16T12:14:52.391Z,15.93
2022-11-16T12:17:29.349Z,15.97
2022-11-16T12:20:10.057Z,14.60
2022-11-16T12:23:03.724Z,16.77
2022-11-16T12:25:39.271Z,16.07
2022-11-16T12:28:24.465Z,17.33
2022-11-16T12:31:03.418Z,15.90
2022-11-16T12:33:43.964Z,15.60
2022-11-16T12:36:25.715Z,16.43
2022-11-16T12:39:05.192Z,14.40
2022-11-16T12:41:53.465Z,14.53
2022-11-16T12:44:30.417Z,14.00
2022-11-16T12:47:08.364Z,14.63
2022-11-16T12:49:52.320Z,15.17
2022-11-16T12:52:38.351Z,16.03
2022-11-16T12:55:25.775Z,15.17
2022-11-16T12:58:11.460Z,14.47
2022-11-16T13:01:03.697Z,13.97
2022-11-16T13:03:42.630Z,14.03
2022-11-16T13:06:14.280Z,14.87
2022-11-16T13:08:50.165Z,13.93
2022-11-16T13:11:23.793Z,13.97
2022-11-16T13:13:59.291Z,13.30
2022-11-16T13:16:28.503Z,14.50
2022-11-16T13:18:57.137Z,13.17
2022-11-16T13:21:44.511Z,13.00
2022-11-16T13:24:34.259Z,13.33
2022-11-16T13:27:15.745Z,14.30
2022-11-16T13:29:47.436Z,12.93
2022-11-16T13:32:21.337Z,15.27
2022-11-16T13:34:50.290Z,14.87
2022-11-16T13:37:44.305Z,13.17
2022-11-16T13:40:26.245Z,12.90
2022-11-16T13:43:18.779Z,12.47
2022-11-16T13:45:57.954Z,12.53
2022-11-16T13:48:31.353Z,14.40
2022-11-16T13:51:02.107Z,15.20
2022-11-16T13:56:28.670Z,18.07
2022-11-16T13:58:59.448Z,17.50
2022-11-16T14:01:57.573Z,18.17
2022-11-16T14:04:40.386Z,17.60
2022-11-16T14:07:29.894Z,19.40
2022-11-16T14:09:57.794Z,17.93
2022-11-16T14:12:58.081Z,17.63
2022-11-16T14:15:32.271Z,18.73
2022-11-16T14:18:36.991Z,18.70
2022-11-16T14:21:14.507Z,16.57
2022-11-16T14:24:16.455Z,16.37
2022-11-16T14:26:57.439Z,16.23
2022-11-16T14:29:51.193Z,16.97
2022-11-16T14:32:22.893Z,17.13
2022-11-16T14:34:52.847Z,15.17
2022-11-16T14:37:33.485Z,16.00
2022-11-16T14:40:05.771Z,15.30
2022-11-16T14:43:01.545Z,16.00
2022-11-16T14:45:29.246Z,14.80
2022-11-16T14:48:02.097Z,15.37
2022-11-16T14:50:30.293Z,16.17
2022-11-16T14:53:03.161Z,15.60
2022-11-16T14:55:31.073Z,14.83
2022-11-16T14:58:09.366Z,20.00
2022-11-16T15:00:39.578Z,19.33
2022-11-16T15:03:12.705Z,16.57
2022-11-16T15:05:40.943Z,17.17
2022-11-16T15:08:22.064Z,17.63
2022-11-16T15:10:52.581Z,16.97
2022-11-16T15:13:23.290Z,17.63
2022-11-16T15:16:09.488Z,17.80
2022-11-16T15:18:37.381Z,17.43
2022-11-16T15:21:05.263Z,17.53
2022-11-16T15:23:33.420Z,18.00
2022-11-16T15:26:02.381Z,16.63
2022-11-16T15:28:32.871Z,18.47
2022-11-16T15:31:04.787Z,19.20
2022-11-16T15:33:36.931Z,17.00
2022-11-16T15:36:22.742Z,17.73
2022-11-16T15:38:52.366Z,18.27
2022-11-16T15:41:20.704Z,18.20
2022-11-16T15:44:12.175Z,16.33
2022-11-16T15:46:43.563Z,17.13
2022-11-16T15:49:23.202Z,16.60
2022-11-16T15:51:51.010Z,26.60
2022-11-16T15:54:25.221Z,47.50
2022-11-16T15:56:56.030Z,47.53
2022-11-16T15:59:28.503Z,28.70
2022-11-16T16:01:57.721Z,21.23
2022-11-16T16:04:26.899Z,19.97
2022-11-16T16:06:56.590Z,19.37
2022-11-16T16:09:27.288Z,20.80
2022-11-16T16:11:56.482Z,20.37
2022-11-16T16:14:27.000Z,20.37
2022-11-16T16:16:57.825Z,19.50
2022-11-16T16:19:33.411Z,20.00
2022-11-16T16:22:01.890Z,20.77
2022-11-16T16:24:42.069Z,32.23
2022-11-16T16:27:12.383Z,37.10
2022-11-16T16:29:40.309Z,24.37
2022-11-16T16:32:15.101Z,23.20
2022-11-16T16:34:43.093Z,23.57
2022-11-16T16:37:16.039Z,26.57
2022-11-16T16:39:43.961Z,24.30
2022-11-16T16:42:14.223Z,24.67
2022-11-16T16:44:42.454Z,26.40
2022-11-16T16:47:12.239Z,26.13
2022-11-16T16:49:40.476Z,28.37
2022-11-16T16:52:08.675Z,27.57
2022-11-16T16:54:36.476Z,25.40
2022-11-16T16:57:04.437Z,26.60
2022-11-16T16:59:32.282Z,24.03
2022-11-16T17:02:00.433Z,21.57
2022-11-16T17:04:29.782Z,24.00
2022-11-16T17:06:57.661Z,25.40
2022-11-16T17:09:25.471Z,23.80
2022-11-16T17:11:53.286Z,23.40
2022-11-16T17:14:24.339Z,22.97
2022-11-16T17:16:52.432Z,23.87
2022-11-16T17:19:20.997Z,22.27
2022-11-16T17:21:51.996Z,23.50
2022-11-16T17:24:20.039Z,22.03
2022-11-16T17:26:48.783Z,24.80
2022-11-16T17:29:16.641Z,24.97
2022-11-16T17:31:44.869Z,23.40
2022-11-16T17:34:14.040Z,25.20
2022-11-16T17:36:42.467Z,23.87
2022-11-16T17:39:11.826Z,23.60
2022-11-16T17:41:39.628Z,22.63
2022-11-16T17:44:07.530Z,22.43
2022-11-16T17:46:35.755Z,23.33
2022-11-16T17:49:03.827Z,23.97
2022-11-16T17:51:31.736Z,24.70
2022-11-16T17:53:59.612Z,24.00
2022-11-16T17:56:29.685Z,23.90
2022-11-16T17:58:58.448Z,22.07
2022-11-16T18:01:27.131Z,22.50
2022-11-16T18:03:55.319Z,38.27
2022-11-16T18:06:25.037Z,33.43
2022-11-16T18:08:53.566Z,25.80
2022-11-16T18:11:23.095Z,26.67
2022-11-16T18:13:55.411Z,25.90
2022-11-16T18:16:25.691Z,24.43
2022-11-16T18:18:57.278Z,25.93
2022-11-16T18:21:25.680Z,25.97
2022-11-16T18:23:53.904Z,25.43
2022-11-16T18:26:23.342Z,27.47
2022-11-16T18:28:52.515Z,26.20
2022-11-16T18:31:23.167Z,27.03
2022-11-16T18:33:52.008Z,26.43
2022-11-16T18:36:21.628Z,26.70
2022-11-16T18:38:49.666Z,25.33
2022-11-16T18:41:20.214Z,26.50
2022-11-16T18:43:52.989Z,26.23
2022-11-16T18:46:24.166Z,26.50
2022-11-16T18:48:52.444Z,26.30
2022-11-16T18:51:21.459Z,26.50
2022-11-16T18:53:49.680Z,26.50
2022-11-16T18:56:18.086Z,26.80
2022-11-16T18:58:51.457Z,25.23
2022-11-16T19:01:23.721Z,26.37
2022-11-16T19:03:52.596Z,24.53
2022-11-16T19:06:21.055Z,25.20
2022-11-16T19:08:55.357Z,23.23
2022-11-16T19:11:25.323Z,24.97
2022-11-16T19:13:54.547Z,26.73
2022-11-16T19:16:25.062Z,24.63
2022-11-16T19:18:53.792Z,25.07
2022-11-16T19:21:22.856Z,25.90
2022-11-16T19:23:51.980Z,26.37
2022-11-16T19:26:21.635Z,25.57
2022-11-16T19:28:51.135Z,26.43
2022-11-16T19:31:20.930Z,27.10
2022-11-16T19:33:54.931Z,25.13
2022-11-16T19:36:23.083Z,23.80
2022-11-16T19:38:51.436Z,24.00
2022-11-16T19:41:21.550Z,23.00
2022-11-16T19:43:51.204Z,25.17
2022-11-16T19:46:21.316Z,25.63
2022-11-16T19:48:50.693Z,25.83
2022-11-16T19:51:20.477Z,25.33
2022-11-16T19:53:48.705Z,26.30
2022-11-16T19:56:18.614Z,28.93
2022-11-16T19:58:47.018Z,31.37
2022-11-16T20:01:16.977Z,30.73
2022-11-16T20:03:45.507Z,28.50
2022-11-16T20:06:16.707Z,30.40
2022-11-16T20:08:48.885Z,28.27
2022-11-16T20:11:18.414Z,28.60
2022-11-16T20:13:46.278Z,26.20
2022-11-16T20:16:15.602Z,25.07
2022-11-16T20:18:44.665Z,28.00
2022-11-16T20:21:28.041Z,27.57
2022-11-16T20:24:04.720Z,26.20
2022-11-16T20:26:36.370Z,27.80
2022-11-16T20:29:04.826Z,26.37
2022-11-16T20:31:34.206Z,28.40
2022-11-16T20:34:04.272Z,26.90
2022-11-16T20:36:35.811Z,27.07
2022-11-16T20:39:03.634Z,29.10
2022-11-16T20:41:33.344Z,29.37
2022-11-16T20:44:02.509Z,26.90
2022-11-16T20:46:33.761Z,28.30
2022-11-16T20:49:01.870Z,28.50
2022-11-16T20:51:30.487Z,26.67
2022-11-16T20:53:59.822Z,26.20
2022-11-16T20:56:28.217Z,27.40
2022-11-16T20:58:56.049Z,28.37
2022-11-16T21:01:28.734Z,26.43
2022-11-16T21:03:57.548Z,28.30
2022-11-16T21:06:26.189Z,29.07
2022-11-16T21:08:54.407Z,27.23
2022-11-16T21:11:25.710Z,29.47
2022-11-16T21:14:11.593Z,27.43
2022-11-16T21:16:40.173Z,27.43
2022-11-16T21:19:08.233Z,29.90
2022-11-16T21:21:36.082Z,27.10
2022-11-16T21:24:03.855Z,28.30
2022-11-16T21:26:34.148Z,30.83
2022-11-16T21:29:02.761Z,28.33
2022-11-16T21:31:32.617Z,28.17
2022-11-16T21:34:01.463Z,29.93
2022-11-16T21:36:31.643Z,27.33
2022-11-16T21:38:59.593Z,32.70
2022-11-16T21:41:28.100Z,29.77
2022-11-16T21:43:57.460Z,34.40
2022-11-16T21:46:27.136Z,36.27
2022-11-16T21:48:56.733Z,39.10
2022-11-16T21:51:26.710Z,60.73
2022-11-16T21:53:55.166Z,58.27
2022-11-16T21:56:24.409Z,87.30
2022-11-16T21:58:53.676Z,53.30
2022-11-16T22:01:24.236Z,44.93
2022-11-16T22:04:06.109Z,71.63
2022-11-16T22:06:51.407Z,95.17
2022-11-16T22:09:19.240Z,60.60
2022-11-16T22:11:47.092Z,45.63
2022-11-16T22:14:14.887Z,44.13
2022-11-16T22:16:44.025Z,37.40
2022-11-16T22:19:11.863Z,34.17
2022-11-16T22:21:39.669Z,39.83
2022-11-16T22:24:08.311Z,38.70
2022-11-16T22:26:37.925Z,41.07
2022-11-16T22:29:05.702Z,45.20
2022-11-16T22:31:33.495Z,49.67
2022-11-16T22:34:02.631Z,51.20
2022-11-16T22:36:30.440Z,44.70
2022-11-16T22:38:58.240Z,46.97
2022-11-16T22:41:26.083Z,45.83
2022-11-16T22:43:54.131Z,44.80
2022-11-16T22:46:21.904Z,38.77
2022-11-16T22:48:49.726Z,34.00
2022-11-16T22:51:22.146Z,30.50
2022-11-16T22:53:53.827Z,32.97
2022-11-16T22:56:21.972Z,23.73
2022-11-16T22:58:49.811Z,20.97
2022-11-16T23:01:17.859Z,20.73
2022-11-16T23:03:45.947Z,19.33
2022-11-16T23:06:13.873Z,19.90
2022-11-16T23:08:43.380Z,20.43
2022-11-16T23:11:31.396Z,19.40
2022-11-16T23:14:17.080Z,19.87
2022-11-16T23:16:45.743Z,21.27
2022-11-16T23:19:32.975Z,19.80
2022-11-16T23:22:18.874Z,20.50
2022-11-16T23:25:05.788Z,22.53
2022-11-16T23:27:41.000Z,21.73
2022-11-16T23:30:12.833Z,22.30
2022-11-16T23:32:41.223Z,23.90
2022-11-16T23:35:10.224Z,23.03
2022-11-16T23:37:51.719Z,23.40
2022-11-16T23:40:21.435Z,22.10
2022-11-16T23:43:06.616Z,23.53
2022-11-16T23:45:34.481Z,23.33
2022-11-16T23:48:02.382Z,22.20
2022-11-16T23:50:30.268Z,22.60
2022-11-16T23:52:58.063Z,22.60
2022-11-16T23:55:27.672Z,24.80
2022-11-16T23:57:55.928Z,23.60
